Etusivu
METAR-TAF:

METAR-TAF

Lentoasemat :

Hutchinson County Airport

Borger, Texas, Yhdysvallat

Leveyspiiri: 35-41-42N, Pituuspiiri: 101-23-42W, korkeus merenpinnasta: 931 m

Tämänhetkinen sää

Tämä raportti tehtiin 1 tunti ja 9 minuuttia sitten, kello 01.51 UTC
Tuuli 10 kn lounaasta
Lämpötila 24°C
Kosteus 25%
Ilmanpaine 1003 hPa
Näkyvyys: 16.1 km
selkeää

METAR: KBGD 190151Z AUTO 23010KT 10SM CLR 24/03 A2962 RMK AO2 SLP994 T02440028

Aika: 22:00 (03:00 UTC)


TAF: puuttuu

Säähavainnot ja -ennusteet yli 4000 lentoasemalta (METAR- ja TAF-raportit).

Käytössä olevat sääasemat on merkitty karttaan keltaisilla ja punaisilla pisteillä.

Aseta hiiri pisteen päälle nähdäksesi sääaseman nimen.

Klikkaa sitten nähdäksesi säähavainnot ja -ennusteet.

Kartan vaihtaminen: klikkaa mustalla rastilla varustettuja vihreitä pisteitä, niin voit zoomata sisään; viivalla varustettua vihreää pistettä, niin voit zoomata ulos tai vihreitä nuolia, niin pääset viereisille kartoille.


METAR-TAF: